createdAt,value
2023-01-22T00:00:01.297Z,-3.50
2023-01-22T00:01:03.163Z,-3.50
2023-01-22T00:02:05.695Z,-3.50
2023-01-22T00:03:07.786Z,-3.50
2023-01-22T00:04:09.688Z,-3.50
2023-01-22T00:05:11.362Z,-3.50
2023-01-22T00:06:13.268Z,-3.50
2023-01-22T00:07:15.668Z,-3.60
2023-01-22T00:08:17.421Z,-3.60
2023-01-22T00:09:19.251Z,-3.60
2023-01-22T00:10:20.923Z,-3.60
2023-01-22T00:11:22.692Z,-3.50
2023-01-22T00:12:24.351Z,-3.50
2023-01-22T00:13:26.552Z,-3.50
2023-01-22T00:14:28.396Z,-3.50
2023-01-22T00:15:30.189Z,-3.50
2023-01-22T00:16:31.827Z,-3.50
2023-01-22T00:17:33.778Z,-3.50
2023-01-22T00:18:35.587Z,-3.50
2023-01-22T00:19:37.492Z,-3.50
2023-01-22T00:20:41.438Z,-3.50
2023-01-22T00:21:43.339Z,-3.50
2023-01-22T00:22:45.065Z,-3.50
2023-01-22T00:23:46.793Z,-3.50
2023-01-22T00:24:48.436Z,-3.50
2023-01-22T00:25:50.468Z,-3.50
2023-01-22T00:26:52.119Z,-3.50
2023-01-22T00:27:54.168Z,-3.50
2023-01-22T00:28:55.830Z,-3.50
2023-01-22T00:29:57.584Z,-3.50
2023-01-22T00:31:02.619Z,-3.50
2023-01-22T00:32:04.917Z,-3.50
2023-01-22T00:33:08.167Z,-3.50
2023-01-22T00:34:09.844Z,-3.50
2023-01-22T00:35:11.483Z,-3.50
2023-01-22T00:36:15.154Z,-3.50
2023-01-22T00:37:17.003Z,-3.50
2023-01-22T00:38:18.818Z,-3.50
2023-01-22T00:39:20.472Z,-3.50
2023-01-22T00:40:22.224Z,-3.50
2023-01-22T00:41:23.992Z,-3.50
2023-01-22T00:42:25.691Z,-3.50
2023-01-22T00:43:27.472Z,-3.50
2023-01-22T00:44:29.267Z,-3.50
2023-01-22T00:45:31.064Z,-3.50
2023-01-22T00:46:32.880Z,-3.50
2023-01-22T00:47:35.790Z,-3.50
2023-01-22T00:48:37.876Z,-3.60
2023-01-22T00:49:39.835Z,-3.60
2023-01-22T00:50:41.480Z,-3.60
2023-01-22T00:51:43.371Z,-3.60
2023-01-22T00:52:45.528Z,-3.60
2023-01-22T00:53:47.250Z,-3.60
2023-01-22T00:54:49.020Z,-3.60
2023-01-22T00:55:57.200Z,-3.60
2023-01-22T00:56:58.929Z,-3.60
2023-01-22T00:58:00.573Z,-3.60
2023-01-22T00:59:02.429Z,-3.60
2023-01-22T01:00:04.679Z,-3.60
2023-01-22T01:01:06.767Z,-3.70
2023-01-22T01:02:08.520Z,-3.70
2023-01-22T01:03:30.226Z,-3.70
2023-01-22T01:04:31.967Z,-3.70
2023-01-22T01:05:33.649Z,-3.70
2023-01-22T01:06:35.698Z,-3.80
2023-01-22T01:07:37.364Z,-3.70
2023-01-22T01:08:40.558Z,-3.80
2023-01-22T01:09:42.366Z,-3.70
2023-01-22T01:10:44.375Z,-3.70
2023-01-22T01:11:47.272Z,-3.70
2023-01-22T01:12:49.115Z,-3.70
2023-01-22T01:13:52.072Z,-3.70
2023-01-22T01:14:55.847Z,-3.80
2023-01-22T01:16:01.464Z,-3.80
2023-01-22T01:17:03.180Z,-3.80
2023-01-22T01:18:04.906Z,-3.80
2023-01-22T01:19:07.826Z,-3.80
2023-01-22T01:20:09.989Z,-3.80
2023-01-22T01:21:12.217Z,-3.80
2023-01-22T01:22:13.863Z,-3.80
2023-01-22T01:23:16.017Z,-3.80
2023-01-22T01:24:17.700Z,-3.80
2023-01-22T01:25:19.343Z,-3.90
2023-01-22T01:26:21.022Z,-3.90
2023-01-22T01:27:22.763Z,-3.90
2023-01-22T01:28:25.094Z,-3.90
2023-01-22T01:29:26.898Z,-3.90
2023-01-22T01:30:28.669Z,-3.90
2023-01-22T01:31:30.671Z,-3.90
2023-01-22T01:32:32.532Z,-3.90
2023-01-22T01:33:34.260Z,-3.90
2023-01-22T01:34:35.956Z,-4.00
2023-01-22T01:35:37.732Z,-4.00
2023-01-22T01:36:49.236Z,-4.00
2023-01-22T01:37:52.226Z,-4.00
2023-01-22T01:38:54.813Z,-4.00
2023-01-22T01:39:56.456Z,-4.00
2023-01-22T01:40:58.404Z,-4.00
2023-01-22T01:42:00.233Z,-4.00
2023-01-22T01:43:02.244Z,-4.10
2023-01-22T01:44:13.049Z,-4.10
2023-01-22T01:45:17.815Z,-4.10
2023-01-22T01:46:22.387Z,-4.10
2023-01-22T01:47:30.979Z,-4.10
2023-01-22T01:48:37.735Z,-4.10
2023-01-22T01:49:50.464Z,-4.10
2023-01-22T01:51:12.539Z,-4.10
2023-01-22T01:52:14.798Z,-4.00
2023-01-22T01:53:16.735Z,-4.00
2023-01-22T01:54:18.670Z,-4.00
2023-01-22T01:55:24.609Z,-4.00
2023-01-22T01:56:28.892Z,-4.00
2023-01-22T01:57:31.869Z,-4.00
2023-01-22T01:58:34.550Z,-4.00
2023-01-22T01:59:36.889Z,-4.00
2023-01-22T02:00:39.716Z,-4.00
2023-01-22T02:01:41.397Z,-4.00
2023-01-22T02:02:43.420Z,-4.00
2023-01-22T02:03:46.448Z,-4.00
2023-01-22T02:04:49.859Z,-3.90
2023-01-22T02:05:51.609Z,-3.90
2023-01-22T02:06:53.731Z,-3.90
2023-01-22T02:07:55.467Z,-3.80
2023-01-22T02:08:57.885Z,-3.80
2023-01-22T02:09:59.571Z,-3.80
2023-01-22T02:11:01.237Z,-3.80
2023-01-22T02:12:03.588Z,-3.70
2023-01-22T02:13:07.666Z,-3.70
2023-01-22T02:14:12.216Z,-3.70
2023-01-22T02:15:14.242Z,-3.60
2023-01-22T02:16:15.976Z,-3.60
2023-01-22T02:17:21.945Z,-3.60
2023-01-22T02:18:23.663Z,-3.60
2023-01-22T02:19:25.523Z,-3.50
2023-01-22T02:20:27.180Z,-3.50
2023-01-22T02:21:42.208Z,-3.50
2023-01-22T02:22:44.071Z,-3.50
2023-01-22T02:23:45.724Z,-3.50
2023-01-22T02:24:47.447Z,-3.40
2023-01-22T02:25:49.152Z,-3.40
2023-01-22T02:26:50.791Z,-3.40
2023-01-22T02:27:52.426Z,-3.40
2023-01-22T02:28:54.037Z,-3.40
2023-01-22T02:29:55.748Z,-3.30
2023-01-22T02:30:57.640Z,-3.30
2023-01-22T02:33:10.094Z,-3.30
2023-01-22T02:34:12.417Z,-3.30
2023-01-22T02:35:14.183Z,-3.30
2023-01-22T02:36:16.707Z,-3.30
2023-01-22T02:37:18.495Z,-3.20
2023-01-22T02:38:21.146Z,-3.20
2023-01-22T02:39:22.822Z,-3.20
2023-01-22T02:40:24.519Z,-3.20
2023-01-22T02:41:26.536Z,-3.20
2023-01-22T02:42:28.389Z,-3.20
2023-01-22T02:43:30.028Z,-3.20
2023-01-22T02:44:31.945Z,-3.20
2023-01-22T02:45:33.660Z,-3.20
2023-01-22T02:46:36.086Z,-3.20
2023-01-22T02:47:37.723Z,-3.20
2023-01-22T02:48:39.997Z,-3.20
2023-01-22T02:49:41.639Z,-3.20
2023-01-22T02:50:45.129Z,-3.20
2023-01-22T02:51:46.963Z,-3.20
2023-01-22T02:52:48.650Z,-3.20
2023-01-22T02:53:50.492Z,-3.20
2023-01-22T02:54:52.177Z,-3.20
2023-01-22T02:55:53.844Z,-3.30
2023-01-22T02:56:56.750Z,-3.30
2023-01-22T02:57:59.019Z,-3.30
2023-01-22T02:59:01.462Z,-3.30
2023-01-22T03:00:03.776Z,-3.40
2023-01-22T03:01:19.042Z,-3.40
2023-01-22T03:02:21.809Z,-3.50
2023-01-22T03:03:23.588Z,-3.50
2023-01-22T03:04:26.273Z,-3.60
2023-01-22T03:05:28.042Z,-3.60
2023-01-22T03:06:29.859Z,-3.60
2023-01-22T03:07:42.226Z,-3.70
2023-01-22T03:08:44.513Z,-3.70
2023-01-22T03:09:47.417Z,-3.70
2023-01-22T03:10:49.065Z,-3.80
2023-01-22T03:11:50.747Z,-3.80
2023-01-22T03:13:11.048Z,-3.80
2023-01-22T03:14:31.883Z,-3.80
2023-01-22T03:15:52.548Z,-3.90
2023-01-22T03:17:13.271Z,-3.90
2023-01-22T03:18:34.076Z,-4.00
2023-01-22T03:19:54.655Z,-4.00
2023-01-22T03:21:15.259Z,-4.10
2023-01-22T03:22:17.379Z,-4.10
2023-01-22T03:23:19.111Z,-4.10
2023-01-22T03:24:20.938Z,-4.20
2023-01-22T03:25:22.654Z,-4.20
2023-01-22T03:26:24.503Z,-4.20
2023-01-22T03:27:27.032Z,-4.20
2023-01-22T03:28:28.746Z,-4.20
2023-01-22T03:29:30.551Z,-4.20
2023-01-22T03:30:32.190Z,-4.20
2023-01-22T03:31:33.859Z,-4.20
2023-01-22T03:32:35.728Z,-4.20
2023-01-22T03:33:37.642Z,-4.30
2023-01-22T03:34:39.335Z,-4.30
2023-01-22T03:35:41.014Z,-4.30
2023-01-22T03:36:43.133Z,-4.30
2023-01-22T03:37:45.084Z,-4.30
2023-01-22T03:38:47.185Z,-4.30
2023-01-22T03:39:48.840Z,-4.40
2023-01-22T03:40:50.483Z,-4.40
2023-01-22T03:41:52.185Z,-4.50
2023-01-22T03:42:53.890Z,-4.50
2023-01-22T03:43:55.575Z,-4.50
2023-01-22T03:44:57.237Z,-4.50
2023-01-22T03:46:12.509Z,-4.50
2023-01-22T03:47:14.214Z,-4.50
2023-01-22T03:48:15.941Z,-4.50
2023-01-22T03:49:17.691Z,-4.50
2023-01-22T03:50:19.580Z,-4.50
2023-01-22T03:51:21.992Z,-4.50
2023-01-22T03:52:23.663Z,-4.50
2023-01-22T03:53:25.359Z,-4.50
2023-01-22T03:54:27.005Z,-4.50
2023-01-22T03:55:28.862Z,-4.50
2023-01-22T03:56:30.547Z,-4.50
2023-01-22T03:57:32.153Z,-4.60
2023-01-22T03:58:34.164Z,-4.60
2023-01-22T03:59:35.779Z,-4.60
2023-01-22T04:00:37.473Z,-4.60
2023-01-22T04:01:39.146Z,-4.60
2023-01-22T04:02:40.808Z,-4.60
2023-01-22T04:03:42.828Z,-4.60
2023-01-22T04:04:44.693Z,-4.60
2023-01-22T04:05:46.326Z,-4.70
2023-01-22T04:06:48.092Z,-4.70
2023-01-22T04:07:50.634Z,-4.70
2023-01-22T04:08:54.527Z,-4.70
2023-01-22T04:09:56.210Z,-4.70
2023-01-22T04:10:58.183Z,-4.70
2023-01-22T04:11:59.819Z,-4.70
2023-01-22T04:13:01.454Z,-4.70
2023-01-22T04:14:03.163Z,-4.70
2023-01-22T04:15:05.061Z,-4.70
2023-01-22T04:16:07.347Z,-4.70
2023-01-22T04:17:08.988Z,-4.70
2023-01-22T04:18:11.139Z,-4.70
2023-01-22T04:19:15.167Z,-4.70
2023-01-22T04:20:17.234Z,-4.80
2023-01-22T04:21:19.005Z,-4.80
2023-01-22T04:22:20.619Z,-4.80
2023-01-22T04:23:22.895Z,-4.70
2023-01-22T04:24:24.730Z,-4.80
2023-01-22T04:25:26.345Z,-4.80
2023-01-22T04:26:28.688Z,-4.80
2023-01-22T04:27:30.349Z,-4.80
2023-01-22T04:28:31.996Z,-4.80
2023-01-22T04:29:33.670Z,-4.80
2023-01-22T04:30:35.421Z,-4.80
2023-01-22T04:31:37.199Z,-4.70
2023-01-22T04:32:38.975Z,-4.80
2023-01-22T04:33:40.624Z,-4.70
2023-01-22T04:34:42.900Z,-4.70
2023-01-22T04:35:44.542Z,-4.70
2023-01-22T04:36:46.165Z,-4.70
2023-01-22T04:37:47.857Z,-4.70
2023-01-22T04:38:49.480Z,-4.70
2023-01-22T04:39:51.124Z,-4.70
2023-01-22T04:40:52.880Z,-4.70
2023-01-22T04:41:54.514Z,-4.80
2023-01-22T04:42:56.187Z,-4.80
2023-01-22T04:43:57.834Z,-4.80
2023-01-22T04:44:59.520Z,-4.80
2023-01-22T04:46:01.267Z,-4.80
2023-01-22T04:47:02.957Z,-4.80
2023-01-22T04:48:04.720Z,-4.80
2023-01-22T04:49:06.446Z,-4.80
2023-01-22T04:50:09.588Z,-4.80
2023-01-22T04:51:11.245Z,-4.80
2023-01-22T04:52:13.505Z,-4.80
2023-01-22T04:53:15.291Z,-4.80
2023-01-22T04:54:17.153Z,-4.80
2023-01-22T04:55:19.022Z,-4.80
2023-01-22T04:56:20.752Z,-4.80
2023-01-22T04:57:22.391Z,-4.90
2023-01-22T04:58:24.060Z,-4.90
2023-01-22T04:59:25.732Z,-4.90
2023-01-22T05:00:28.715Z,-4.90
2023-01-22T05:01:30.406Z,-4.90
2023-01-22T05:02:32.402Z,-4.90
2023-01-22T05:03:34.068Z,-4.90
2023-01-22T05:04:35.922Z,-4.90
2023-01-22T05:05:37.579Z,-4.90
2023-01-22T05:06:39.389Z,-4.90
2023-01-22T05:07:41.356Z,-5.00
2023-01-22T05:08:43.062Z,-5.00
2023-01-22T05:09:45.115Z,-5.00
2023-01-22T05:10:47.403Z,-4.90
2023-01-22T05:11:50.109Z,-4.90
2023-01-22T05:12:52.124Z,-5.00
2023-01-22T05:13:54.333Z,-5.00
2023-01-22T05:14:56.016Z,-5.00
2023-01-22T05:15:57.784Z,-5.00
2023-01-22T05:16:59.443Z,-5.00
2023-01-22T05:18:01.144Z,-5.00
2023-01-22T05:19:02.892Z,-5.00
2023-01-22T05:20:04.678Z,-5.10
2023-01-22T05:21:06.575Z,-5.10
2023-01-22T05:22:08.288Z,-5.10
2023-01-22T05:23:09.974Z,-5.20
2023-01-22T05:24:11.675Z,-5.20
2023-01-22T05:25:13.396Z,-5.20
2023-01-22T05:26:15.062Z,-5.30
2023-01-22T05:27:16.685Z,-5.30
2023-01-22T05:28:18.715Z,-5.40
2023-01-22T05:29:25.718Z,-5.40
2023-01-22T05:30:27.370Z,-5.50
2023-01-22T05:31:29.155Z,-5.50
2023-01-22T05:32:30.820Z,-5.50
2023-01-22T05:33:32.868Z,-5.50
2023-01-22T05:34:34.522Z,-5.50
2023-01-22T05:35:36.179Z,-5.50
2023-01-22T05:36:37.819Z,-5.40
2023-01-22T05:37:39.463Z,-5.40
2023-01-22T05:38:41.120Z,-5.40
2023-01-22T05:39:42.740Z,-5.40
2023-01-22T05:40:45.971Z,-5.40
2023-01-22T05:41:47.619Z,-5.40
2023-01-22T05:42:49.370Z,-5.40
2023-01-22T05:43:51.159Z,-5.30
2023-01-22T05:44:52.818Z,-5.30
2023-01-22T05:45:54.607Z,-5.30
2023-01-22T05:46:56.339Z,-5.30
2023-01-22T05:47:58.307Z,-5.30
2023-01-22T05:48:59.981Z,-5.30
2023-01-22T05:50:01.616Z,-5.30
2023-01-22T05:51:07.287Z,-5.30
2023-01-22T05:52:12.253Z,-5.30
2023-01-22T05:53:14.085Z,-5.30
2023-01-22T05:54:15.723Z,-5.30
2023-01-22T05:55:17.347Z,-5.30
2023-01-22T05:56:19.041Z,-5.30
2023-01-22T05:57:20.803Z,-5.30
2023-01-22T05:58:22.462Z,-5.30
2023-01-22T05:59:24.206Z,-5.40
2023-01-22T06:00:26.095Z,-5.40
2023-01-22T06:01:27.792Z,-5.40
2023-01-22T06:02:29.677Z,-5.40
2023-01-22T06:03:31.344Z,-5.40
2023-01-22T06:04:33.054Z,-5.40
2023-01-22T06:05:34.878Z,-5.40
2023-01-22T06:06:36.532Z,-5.40
2023-01-22T06:07:38.222Z,-5.40
2023-01-22T06:08:39.935Z,-5.50
2023-01-22T06:09:41.583Z,-5.50
2023-01-22T06:10:43.321Z,-5.50
2023-01-22T06:11:44.972Z,-5.50
2023-01-22T06:12:47.009Z,-5.50
2023-01-22T06:13:48.783Z,-5.40
2023-01-22T06:14:50.951Z,-5.50
2023-01-22T06:15:53.692Z,-5.50
2023-01-22T06:16:55.361Z,-5.50
2023-01-22T06:18:01.648Z,-5.50
2023-01-22T06:19:03.344Z,-5.50
2023-01-22T06:20:05.371Z,-5.50
2023-01-22T06:21:07.695Z,-5.50
2023-01-22T06:22:09.356Z,-5.60
2023-01-22T06:23:11.164Z,-5.60
2023-01-22T06:24:12.833Z,-5.60
2023-01-22T06:25:14.522Z,-5.60
2023-01-22T06:26:16.177Z,-5.60
2023-01-22T06:27:18.065Z,-5.60
2023-01-22T06:28:20.100Z,-5.60
2023-01-22T06:29:21.794Z,-5.60
2023-01-22T06:30:23.479Z,-5.60
2023-01-22T06:31:25.194Z,-5.70
2023-01-22T06:32:26.922Z,-5.70
2023-01-22T06:33:28.594Z,-5.70
2023-01-22T06:34:31.284Z,-5.70
2023-01-22T06:35:32.871Z,-5.70
2023-01-22T06:36:34.494Z,-5.80
2023-01-22T06:37:36.145Z,-5.80
2023-01-22T06:38:37.844Z,-5.80
2023-01-22T06:39:39.693Z,-5.90
2023-01-22T06:40:41.356Z,-5.90
2023-01-22T06:41:43.023Z,-5.90
2023-01-22T06:42:44.829Z,-6.00
2023-01-22T06:43:46.563Z,-6.00
2023-01-22T06:44:50.595Z,-6.00
2023-01-22T06:45:53.537Z,-6.00
2023-01-22T06:46:55.341Z,-6.00
2023-01-22T06:47:57.067Z,-6.10
2023-01-22T06:49:01.574Z,-6.10
2023-01-22T06:50:04.453Z,-6.10
2023-01-22T06:51:06.293Z,-6.10
2023-01-22T06:52:08.206Z,-6.10
2023-01-22T06:53:10.005Z,-6.10
2023-01-22T06:54:12.844Z,-6.10
2023-01-22T06:55:14.780Z,-6.10
2023-01-22T06:56:16.500Z,-6.10
2023-01-22T06:57:18.251Z,-6.10
2023-01-22T06:58:19.989Z,-6.20
2023-01-22T06:59:22.170Z,-6.20
2023-01-22T07:00:24.387Z,-6.20
2023-01-22T07:01:26.222Z,-6.20
2023-01-22T07:02:27.998Z,-6.20
2023-01-22T07:03:30.256Z,-6.30
2023-01-22T07:04:32.379Z,-6.30
2023-01-22T07:05:34.997Z,-6.30
2023-01-22T07:06:36.620Z,-6.30
2023-01-22T07:07:38.329Z,-6.30
2023-01-22T07:08:40.985Z,-6.30
2023-01-22T07:09:42.838Z,-6.30
2023-01-22T07:10:44.516Z,-6.30
2023-01-22T07:11:46.211Z,-6.30
2023-01-22T07:12:48.655Z,-6.30
2023-01-22T07:13:50.311Z,-6.30
2023-01-22T07:14:51.977Z,-6.30
2023-01-22T07:15:53.680Z,-6.20
2023-01-22T07:16:55.510Z,-6.20
2023-01-22T07:17:57.160Z,-6.20
2023-01-22T07:18:59.830Z,-6.20
2023-01-22T07:20:01.514Z,-6.20
2023-01-22T07:21:04.178Z,-6.20
2023-01-22T07:22:05.840Z,-6.20
2023-01-22T07:23:07.799Z,-6.20
2023-01-22T07:24:10.605Z,-6.20
2023-01-22T07:25:12.271Z,-6.20
2023-01-22T07:26:15.064Z,-6.20
2023-01-22T07:27:16.677Z,-6.20
2023-01-22T07:28:18.394Z,-6.20
2023-01-22T07:29:20.055Z,-6.20
2023-01-22T07:30:21.827Z,-6.20
2023-01-22T07:31:23.501Z,-6.20
2023-01-22T07:32:25.184Z,-6.10
2023-01-22T07:33:26.956Z,-6.10
2023-01-22T07:34:29.146Z,-6.10
2023-01-22T07:35:30.966Z,-6.10
2023-01-22T07:36:32.628Z,-6.10
2023-01-22T07:37:34.243Z,-6.10
2023-01-22T07:38:35.887Z,-6.20
2023-01-22T07:39:37.550Z,-6.20
2023-01-22T07:40:39.226Z,-6.20
2023-01-22T07:41:40.845Z,-6.30
2023-01-22T07:42:42.494Z,-6.20
2023-01-22T07:43:44.133Z,-6.20
2023-01-22T07:44:46.250Z,-6.20
2023-01-22T07:45:48.290Z,-6.20
2023-01-22T07:46:50.217Z,-6.10
2023-01-22T07:47:56.295Z,-6.10
2023-01-22T07:48:57.945Z,-6.00
2023-01-22T07:49:59.611Z,-5.90
2023-01-22T07:51:01.887Z,-5.90
2023-01-22T07:52:03.636Z,-5.80
2023-01-22T07:53:05.489Z,-5.80
2023-01-22T07:54:07.179Z,-5.70
2023-01-22T07:55:09.143Z,-5.60
2023-01-22T07:56:10.777Z,-5.60
2023-01-22T07:57:15.415Z,-5.50
2023-01-22T07:58:17.055Z,-5.40
2023-01-22T07:59:18.740Z,-5.30
2023-01-22T08:00:21.246Z,-5.30
2023-01-22T08:01:23.001Z,-5.20
2023-01-22T08:02:24.744Z,-5.10
2023-01-22T08:03:26.585Z,-5.10
2023-01-22T08:04:28.298Z,-5.00
2023-01-22T08:05:29.940Z,-5.00
2023-01-22T08:06:31.784Z,-4.90
2023-01-22T08:07:33.531Z,-4.90
2023-01-22T08:08:35.285Z,-4.80
2023-01-22T08:09:37.992Z,-4.80
2023-01-22T08:10:39.621Z,-4.70
2023-01-22T08:11:41.315Z,-4.70
2023-01-22T08:12:46.058Z,-4.60
2023-01-22T08:13:48.306Z,-4.60
2023-01-22T08:14:49.968Z,-4.50
2023-01-22T08:15:51.632Z,-4.50
2023-01-22T08:16:53.306Z,-4.40
2023-01-22T08:17:54.959Z,-4.30
2023-01-22T08:18:56.656Z,-4.30
2023-01-22T08:19:58.329Z,-4.20
2023-01-22T08:21:01.034Z,-4.10
2023-01-22T08:22:04.326Z,-4.00
2023-01-22T08:23:05.999Z,-3.90
2023-01-22T08:24:08.297Z,-3.90
2023-01-22T08:25:10.109Z,-3.80
2023-01-22T08:26:11.762Z,-3.70
2023-01-22T08:27:13.928Z,-3.70
2023-01-22T08:28:15.713Z,-3.60
2023-01-22T08:29:17.743Z,-3.50
2023-01-22T08:30:20.570Z,-3.50
2023-01-22T08:31:27.785Z,-3.40
2023-01-22T08:32:30.240Z,-3.40
2023-01-22T08:33:33.203Z,-3.30
2023-01-22T08:34:34.856Z,-3.30
2023-01-22T08:35:38.829Z,-3.30
2023-01-22T08:36:40.453Z,-3.30
2023-01-22T08:37:44.105Z,-3.20
2023-01-22T08:38:45.748Z,-3.20
2023-01-22T08:39:47.502Z,-3.20
2023-01-22T08:40:50.134Z,-3.20
2023-01-22T08:41:57.302Z,-3.20
2023-01-22T08:42:59.227Z,-3.20
2023-01-22T08:44:00.911Z,-3.10
2023-01-22T08:45:02.607Z,-3.10
2023-01-22T08:46:04.375Z,-3.10
2023-01-22T08:47:06.046Z,-3.10
2023-01-22T08:48:07.702Z,-3.10
2023-01-22T08:49:09.449Z,-3.10
2023-01-22T08:50:11.293Z,-3.10
2023-01-22T08:51:13.063Z,-3.10
2023-01-22T08:52:14.773Z,-3.20
2023-01-22T08:53:16.467Z,-3.20
2023-01-22T08:54:18.402Z,-3.20
2023-01-22T08:55:20.498Z,-3.20
2023-01-22T08:56:22.212Z,-3.20
2023-01-22T08:57:24.031Z,-3.20
2023-01-22T08:58:27.881Z,-3.20
2023-01-22T08:59:31.069Z,-3.20
2023-01-22T09:00:33.108Z,-3.20
2023-01-22T09:01:35.027Z,-3.20
2023-01-22T09:02:36.716Z,-3.20
2023-01-22T09:03:38.443Z,-3.20
2023-01-22T09:04:40.563Z,-3.20
2023-01-22T09:05:42.558Z,-3.20
2023-01-22T09:06:44.419Z,-3.20
2023-01-22T09:07:46.458Z,-3.20
2023-01-22T09:08:48.132Z,-3.20
2023-01-22T09:09:50.337Z,-3.20
2023-01-22T09:10:52.044Z,-3.20
2023-01-22T09:11:53.883Z,-3.20
2023-01-22T09:12:58.241Z,-3.20
2023-01-22T09:14:00.227Z,-3.20
2023-01-22T09:15:02.336Z,-3.10
2023-01-22T09:16:06.019Z,-3.10
2023-01-22T09:17:07.796Z,-3.10
2023-01-22T09:18:09.868Z,-3.00
2023-01-22T09:19:12.141Z,-3.00
2023-01-22T09:20:14.055Z,-3.00
2023-01-22T09:21:16.487Z,-2.90
2023-01-22T09:22:18.262Z,-2.90
2023-01-22T09:23:19.999Z,-2.90
2023-01-22T09:24:21.777Z,-2.80
2023-01-22T09:25:23.736Z,-2.80
2023-01-22T09:26:25.830Z,-2.80
2023-01-22T09:27:27.617Z,-2.70
2023-01-22T09:28:29.522Z,-2.70
2023-01-22T09:29:31.516Z,-2.70
2023-01-22T09:30:33.472Z,-2.70
2023-01-22T09:31:36.557Z,-2.60
2023-01-22T09:32:38.560Z,-2.60
2023-01-22T09:33:40.589Z,-2.60
2023-01-22T09:34:42.420Z,-2.70
2023-01-22T09:35:44.276Z,-2.60
2023-01-22T09:36:46.560Z,-2.50
2023-01-22T09:37:48.353Z,-2.50
2023-01-22T09:38:53.166Z,-2.40
2023-01-22T09:39:55.092Z,-2.50
2023-01-22T09:40:58.910Z,-2.40
2023-01-22T09:42:03.519Z,-2.40
2023-01-22T09:43:23.885Z,-2.40
2023-01-22T09:44:43.447Z,-2.30
2023-01-22T09:45:46.975Z,-2.30
2023-01-22T09:46:58.531Z,-2.40
2023-01-22T09:48:06.798Z,-2.40
2023-01-22T09:49:21.929Z,-2.30
2023-01-22T09:50:30.450Z,-2.30
2023-01-22T09:51:33.492Z,-2.30
2023-01-22T09:52:39.425Z,-2.30
2023-01-22T09:53:43.502Z,-2.30
2023-01-22T09:54:47.299Z,-2.20
2023-01-22T09:55:54.611Z,-2.20
2023-01-22T09:56:59.598Z,-2.20
2023-01-22T09:58:05.647Z,-2.20
2023-01-22T09:59:19.579Z,-2.20
2023-01-22T10:00:41.082Z,-2.10
2023-01-22T10:01:47.127Z,-2.10
2023-01-22T10:02:55.882Z,-2.10
2023-01-22T10:04:06.438Z,-2.20
2023-01-22T10:05:28.900Z,-2.20
2023-01-22T10:06:38.309Z,-2.20
2023-01-22T10:07:45.227Z,-2.10
2023-01-22T10:08:49.982Z,-2.10
2023-01-22T10:09:55.740Z,-2.00
2023-01-22T10:11:01.017Z,-2.00
2023-01-22T10:12:10.001Z,-2.00
2023-01-22T10:13:15.333Z,-2.00
2023-01-22T10:14:18.135Z,-1.90
2023-01-22T10:15:23.667Z,-1.90
2023-01-22T10:16:30.356Z,-1.90
2023-01-22T10:17:34.165Z,-1.80
2023-01-22T10:18:56.808Z,-1.80
2023-01-22T10:20:00.691Z,-1.80
2023-01-22T10:21:03.839Z,-1.80
2023-01-22T10:22:10.446Z,-1.80
2023-01-22T10:23:19.949Z,-1.80
2023-01-22T10:24:21.702Z,-1.70
2023-01-22T10:25:23.483Z,-1.70
2023-01-22T10:26:29.229Z,-1.70
2023-01-22T10:27:35.552Z,-1.60
2023-01-22T10:28:37.252Z,-1.60
2023-01-22T10:29:39.328Z,-1.60
2023-01-22T10:30:48.164Z,-1.50
2023-01-22T10:31:55.378Z,-1.50
2023-01-22T10:32:58.494Z,-1.50
2023-01-22T10:34:01.893Z,-1.40
2023-01-22T10:35:05.941Z,-1.30
2023-01-22T10:36:08.452Z,-1.30
2023-01-22T10:37:14.785Z,-1.30
2023-01-22T10:38:30.758Z,-1.30
2023-01-22T10:39:43.727Z,-1.30
2023-01-22T10:40:45.423Z,-1.30
2023-01-22T10:41:47.922Z,-1.30
2023-01-22T10:43:01.783Z,-1.40
2023-01-22T10:44:15.713Z,-1.40
2023-01-22T10:45:18.793Z,-1.50
2023-01-22T10:46:24.741Z,-1.60
2023-01-22T10:47:27.673Z,-1.70
2023-01-22T10:48:29.572Z,-1.70
2023-01-22T10:49:31.751Z,-1.80
2023-01-22T10:50:33.904Z,-1.90
2023-01-22T10:51:39.661Z,-2.00
2023-01-22T10:52:42.381Z,-2.00
2023-01-22T10:53:47.502Z,-2.00
2023-01-22T10:54:56.613Z,-2.00
2023-01-22T10:55:59.786Z,-2.00
2023-01-22T10:57:40.504Z,-2.00
2023-01-22T10:58:46.439Z,-2.10
2023-01-22T10:59:53.265Z,-2.20
2023-01-22T11:00:56.325Z,-2.10
2023-01-22T11:02:00.893Z,-2.10
2023-01-22T11:03:16.581Z,-2.10
2023-01-22T11:04:28.895Z,-2.10
2023-01-22T11:05:34.402Z,-2.10
2023-01-22T11:06:39.723Z,-2.10
2023-01-22T11:07:44.133Z,-2.00
2023-01-22T11:08:45.851Z,-2.00
2023-01-22T11:09:48.118Z,-1.90
2023-01-22T11:10:56.085Z,-1.90
2023-01-22T11:12:17.990Z,-1.90
2023-01-22T11:13:22.922Z,-1.90
2023-01-22T11:14:35.265Z,-1.90
2023-01-22T11:15:37.182Z,-1.90
2023-01-22T11:16:40.892Z,-1.80
2023-01-22T11:17:45.343Z,-1.80
2023-01-22T11:18:50.150Z,-1.70
2023-01-22T11:19:58.842Z,-1.70
2023-01-22T11:21:09.028Z,-1.70
2023-01-22T11:22:43.094Z,-1.70
2023-01-22T11:23:54.293Z,-1.70
2023-01-22T11:24:56.265Z,-1.80
2023-01-22T11:26:01.112Z,-1.80
2023-01-22T11:27:16.072Z,-1.80
2023-01-22T11:28:43.155Z,-1.80
2023-01-22T11:29:56.889Z,-1.80
2023-01-22T11:31:20.835Z,-1.80
2023-01-22T11:32:28.627Z,-1.80
2023-01-22T11:33:45.699Z,-1.80
2023-01-22T11:34:50.438Z,-1.80
2023-01-22T11:36:00.100Z,-1.80
2023-01-22T11:37:31.615Z,-1.80
2023-01-22T11:38:45.495Z,-1.70
2023-01-22T11:39:55.081Z,-1.80
2023-01-22T11:41:01.562Z,-1.80
2023-01-22T11:42:06.770Z,-1.80
2023-01-22T11:43:11.029Z,-1.80
2023-01-22T11:44:51.815Z,-1.70
2023-01-22T11:45:54.458Z,-1.70
2023-01-22T11:47:11.351Z,-1.70
2023-01-22T11:48:20.058Z,-1.70
2023-01-22T11:49:22.480Z,-1.60
2023-01-22T11:50:46.155Z,-1.60
2023-01-22T11:51:53.928Z,-1.60
2023-01-22T11:53:18.867Z,-1.60
2023-01-22T11:54:35.959Z,-1.60
2023-01-22T11:55:43.697Z,-1.60
2023-01-22T11:56:49.915Z,-1.50
2023-01-22T11:57:57.264Z,-1.50
2023-01-22T11:59:01.989Z,-1.50
2023-01-22T12:00:04.836Z,-1.50
2023-01-22T12:01:18.885Z,-1.50
2023-01-22T12:02:20.561Z,-1.50
2023-01-22T12:03:24.779Z,-1.40
2023-01-22T12:04:45.355Z,-1.40
2023-01-22T12:05:52.746Z,-1.40
2023-01-22T12:07:09.741Z,-1.40
2023-01-22T12:08:17.482Z,-1.40
2023-01-22T12:09:24.061Z,-1.40
2023-01-22T12:10:45.713Z,-1.40
2023-01-22T12:11:47.408Z,-1.40
2023-01-22T12:12:55.697Z,-1.40
2023-01-22T12:14:10.799Z,-1.30
2023-01-22T12:15:29.879Z,-1.30
2023-01-22T12:16:38.077Z,-1.30
2023-01-22T12:17:45.552Z,-1.20
2023-01-22T12:19:05.453Z,-1.20
2023-01-22T12:20:26.201Z,-1.20
2023-01-22T12:21:27.883Z,-1.20
2023-01-22T12:22:35.761Z,-1.20
2023-01-22T12:23:37.403Z,-1.20
2023-01-22T12:24:50.196Z,-1.20
2023-01-22T12:25:55.965Z,-1.20
2023-01-22T12:27:01.556Z,-1.20
2023-01-22T12:28:25.983Z,-1.10
2023-01-22T12:29:31.111Z,-1.10
2023-01-22T12:30:42.207Z,-1.10
2023-01-22T12:31:49.928Z,-1.10
2023-01-22T12:32:54.675Z,-1.10
2023-01-22T12:33:59.058Z,-1.10
2023-01-22T12:35:08.885Z,-1.10
2023-01-22T12:36:16.483Z,-1.10
2023-01-22T12:37:20.044Z,-1.10
2023-01-22T12:38:26.744Z,-1.10
2023-01-22T12:39:30.545Z,-1.10
2023-01-22T12:40:38.212Z,-1.10
2023-01-22T12:41:46.310Z,-1.10
2023-01-22T12:43:00.360Z,-1.10
2023-01-22T12:44:06.430Z,-1.10
2023-01-22T12:45:19.366Z,-1.10
2023-01-22T12:46:26.548Z,-1.10
2023-01-22T12:47:37.420Z,-1.10
2023-01-22T12:48:55.367Z,-1.10
2023-01-22T12:49:57.061Z,-1.10
2023-01-22T12:50:58.898Z,-1.10
2023-01-22T12:52:00.596Z,-1.10
2023-01-22T12:53:02.388Z,-1.10
2023-01-22T12:54:17.350Z,-1.10
2023-01-22T12:55:30.004Z,-1.10
2023-01-22T12:56:32.564Z,-1.10
2023-01-22T12:57:38.099Z,-1.10
2023-01-22T12:58:41.307Z,-1.10
2023-01-22T12:59:48.713Z,-1.10
2023-01-22T13:01:04.802Z,-1.00
2023-01-22T13:02:27.052Z,-1.00
2023-01-22T13:03:32.047Z,-1.00
2023-01-22T13:04:34.100Z,-1.00
2023-01-22T13:05:37.664Z,-1.10
2023-01-22T13:06:40.796Z,-1.10
2023-01-22T13:07:42.438Z,-1.10
2023-01-22T13:08:45.266Z,-1.10
2023-01-22T13:09:47.076Z,-1.10
2023-01-22T13:10:53.834Z,-1.10
2023-01-22T13:11:55.459Z,-1.10
2023-01-22T13:13:01.900Z,-1.00
2023-01-22T13:14:22.584Z,-1.00
2023-01-22T13:15:26.815Z,-1.00
2023-01-22T13:16:32.253Z,-1.00
2023-01-22T13:17:34.102Z,-1.00
2023-01-22T13:18:41.430Z,-1.00
2023-01-22T13:19:48.110Z,-1.00
2023-01-22T13:21:00.695Z,-1.00
2023-01-22T13:22:03.042Z,-1.00
2023-01-22T13:23:07.805Z,-1.00
2023-01-22T13:24:14.655Z,-1.00
2023-01-22T13:25:24.083Z,-1.00
2023-01-22T13:26:27.220Z,-1.00
2023-01-22T13:27:33.949Z,-0.90
2023-01-22T13:28:35.577Z,-0.90
2023-01-22T13:29:37.830Z,-0.90
2023-01-22T13:30:40.113Z,-0.90
2023-01-22T13:31:50.232Z,-0.90
2023-01-22T13:33:01.669Z,-0.90
2023-01-22T13:34:08.819Z,-0.90
2023-01-22T13:35:12.987Z,-0.90
2023-01-22T13:36:14.977Z,-0.90
2023-01-22T13:37:23.650Z,-0.90
2023-01-22T13:38:29.867Z,-0.90
2023-01-22T13:39:32.385Z,-0.90
2023-01-22T13:40:46.401Z,-0.90
2023-01-22T13:41:53.947Z,-1.00
2023-01-22T13:42:56.438Z,-1.00
2023-01-22T13:43:58.607Z,-1.00
2023-01-22T13:45:00.447Z,-1.00
2023-01-22T13:46:02.264Z,-1.00
2023-01-22T13:47:04.499Z,-0.90